Observation data for Knox City on 11/19/2019      Previous  Date  Next       Current Mesonet Observations  Soil Data  Daily Summary Page  Observations in Plain Language
KKN1 190600Z 22005KT 08/04 A2993 RMK A01 T00760039  RH  079%=      5-min Rain = 0
KKN1 190605Z 22004KT 08/04 A2993 RMK A01 T00750039  RH  079%=      5-min Rain = 0
KKN1 190610Z 22005KT 08/04 A2993 RMK A01 T00750039  RH  079%=      5-min Rain = 0
KKN1 190615Z 21005KT 07/04 A2993 RMK A01 T00730040  RH  081%=      5-min Rain = 0
KKN1 190620Z 22005KT 07/04 A2993 RMK A01 T00730040  RH  082%=      5-min Rain = 0
KKN1 190625Z 22005KT 07/04 A2994 RMK A01 T00730039  RH  080%=      5-min Rain = 0
KKN1 190630Z 23004KT 07/04 A2994 RMK A01 T00740038  RH  079%=      5-min Rain = 0
KKN1 190635Z 24004KT 08/04 A2994 RMK A01 T00760036  RH  077%=      5-min Rain = 0
KKN1 190640Z 25003KT 08/04 A2994 RMK A01 T00760037  RH  078%=      5-min Rain = 0
KKN1 190645Z 24003KT 08/04 A2994 RMK A01 T00780037  RH  077%=      5-min Rain = 0
KKN1 190650Z 24002KT 08/04 A2994 RMK A01 T00770036  RH  077%=      5-min Rain = 0
KKN1 190655Z 24002KT 07/04 A2994 RMK A01 T00740035  RH  078%=      5-min Rain = 0
KKN1 190700Z 25002KT 07/04 A2994 RMK A01 T00720036  RH  079%=      5-min Rain = 0
KKN1 190705Z 25002KT 07/04 A2994 RMK A01 T00690035  RH  080%=      5-min Rain = 0
KKN1 190710Z 25002KT 07/04 A2994 RMK A01 T00680036  RH  082%=      5-min Rain = 0
KKN1 190715Z 25002KT 07/04 A2994 RMK A01 T00670037  RH  083%=      5-min Rain = 0
KKN1 190720Z 25002KT 07/04 A2994 RMK A01 T00660038  RH  084%=      5-min Rain = 0
KKN1 190725Z 24002KT 07/04 A2994 RMK A01 T00650038  RH  085%=      5-min Rain = 0
KKN1 190730Z 23003KT 06/04 A2994 RMK A01 T00640038  RH  085%=      5-min Rain = 0
KKN1 190735Z 23003KT 06/04 A2994 RMK A01 T00640039  RH  085%=      5-min Rain = 0
KKN1 190740Z 23003KT 07/04 A2994 RMK A01 T00660038  RH  084%=      5-min Rain = 0
KKN1 190745Z 23003KT 07/04 A2994 RMK A01 T00670036  RH  082%=      5-min Rain = 0
KKN1 190750Z 23003KT 07/04 A2994 RMK A01 T00650035  RH  082%=      5-min Rain = 0
KKN1 190755Z 23003KT 06/04 A2994 RMK A01 T00640035  RH  083%=      5-min Rain = 0
KKN1 190800Z 23004KT 07/04 A2993 RMK A01 T00660035  RH  082%=      5-min Rain = 0
KKN1 190805Z 23003KT 07/04 A2993 RMK A01 T00650035  RH  083%=      5-min Rain = 0
KKN1 190810Z 22003KT 06/04 A2993 RMK A01 T00640037  RH  085%=      5-min Rain = 0
KKN1 190815Z 22003KT 06/04 A2993 RMK A01 T00610037  RH  086%=      5-min Rain = 0
KKN1 190820Z 22003KT 06/04 A2993 RMK A01 T00630038  RH  086%=      5-min Rain = 0
KKN1 190825Z 22003KT 07/04 A2993 RMK A01 T00660039  RH  085%=      5-min Rain = 0
KKN1 190830Z 22004KT 07/04 A2993 RMK A01 T00690037  RH  082%=      5-min Rain = 0
KKN1 190835Z 22004KT 07/04 A2993 RMK A01 T00660037  RH  083%=      5-min Rain = 0
KKN1 190840Z 22004KT 06/04 A2994 RMK A01 T00640036  RH  084%=      5-min Rain = 0
KKN1 190845Z 22004KT 06/04 A2994 RMK A01 T00640035  RH  084%=      5-min Rain = 0
KKN1 190850Z 22004KT 06/04 A2994 RMK A01 T00640035  RH  083%=      5-min Rain = 0
KKN1 190855Z 22003KT 06/03 A2994 RMK A01 T00620033  RH  084%=      5-min Rain = 0
KKN1 190900Z 22002KT 06/03 A2993 RMK A01 T00620033  RH  083%=      5-min Rain = 0
KKN1 190905Z 22002KT 06/03 A2993 RMK A01 T00580033  RH  085%=      5-min Rain = 0
KKN1 190910Z 22004KT 06/03 A2993 RMK A01 T00560034  RH  088%=      5-min Rain = 0
KKN1 190915Z 22004KT 06/04 A2993 RMK A01 T00560036  RH  088%=      5-min Rain = 0
KKN1 190920Z 22003KT 06/04 A2993 RMK A01 T00570035  RH  088%=      5-min Rain = 0
KKN1 190925Z 22003KT 06/03 A2994 RMK A01 T00560034  RH  088%=      5-min Rain = 0
KKN1 190930Z 23004KT 06/04 A2994 RMK A01 T00590036  RH  086%=      5-min Rain = 0
KKN1 190935Z 23003KT 06/03 A2994 RMK A01 T00620033  RH  083%=      5-min Rain = 0
KKN1 190940Z 23003KT 06/03 A2994 RMK A01 T00620032  RH  083%=      5-min Rain = 0
KKN1 190945Z 23002KT 06/03 A2994 RMK A01 T00600032  RH  084%=      5-min Rain = 0
KKN1 190950Z 24002KT 06/03 A2994 RMK A01 T00590033  RH  085%=      5-min Rain = 0
KKN1 190955Z 24002KT 06/03 A2994 RMK A01 T00580034  RH  086%=      5-min Rain = 0
KKN1 191000Z 24002KT 06/03 A2994 RMK A01 T00570034  RH  087%=      5-min Rain = 0
KKN1 191005Z 23002KT 06/03 A2994 RMK A01 T00550033  RH  087%=      5-min Rain = 0
KKN1 191010Z 23001KT 06/03 A2994 RMK A01 T00550033  RH  088%=      5-min Rain = 0
KKN1 191015Z 23002KT 05/03 A2994 RMK A01 T00530032  RH  088%=      5-min Rain = 0
KKN1 191020Z 23002KT 05/03 A2994 RMK A01 T00510032  RH  089%=      5-min Rain = 0
KKN1 191025Z 22003KT 05/03 A2994 RMK A01 T00530034  RH  089%=      5-min Rain = 0
KKN1 191030Z 22003KT 05/03 A2994 RMK A01 T00540034  RH  089%=      5-min Rain = 0
KKN1 191035Z 22002KT 05/03 A2994 RMK A01 T00530033  RH  089%=      5-min Rain = 0
KKN1 191040Z 22002KT 05/03 A2994 RMK A01 T00510032  RH  089%=      5-min Rain = 0
KKN1 191045Z 22002KT 05/03 A2995 RMK A01 T00540034  RH  089%=      5-min Rain = 0
KKN1 191050Z 22003KT 05/03 A2995 RMK A01 T00530033  RH  088%=      5-min Rain = 0
KKN1 191055Z 22002KT 05/03 A2995 RMK A01 T00520032  RH  088%=      5-min Rain = 0
KKN1 191100Z 22000KT 05/03 A2995 RMK A01 T00510031  RH  089%=      5-min Rain = 0
KKN1 191105Z 00000KT 05/03 A2995 RMK A01 T00510031  RH  089%=      5-min Rain = 0
KKN1 191110Z 00000KT 05/03 A2995 RMK A01 T00500030  RH  088%=      5-min Rain = 0
KKN1 191115Z 22000KT 05/03 A2995 RMK A01 T00490029  RH  089%=      5-min Rain = 0
KKN1 191120Z 22000KT 05/03 A2995 RMK A01 T00500030  RH  088%=      5-min Rain = 0
KKN1 191125Z 28000KT 05/03 A2995 RMK A01 T00500029  RH  088%=      5-min Rain = 0
KKN1 191130Z 30002KT 05/03 A2995 RMK A01 T00500030  RH  089%=      5-min Rain = 0
KKN1 191135Z 31002KT 05/03 A2995 RMK A01 T00500031  RH  089%=      5-min Rain = 0
KKN1 191140Z 31002KT 06/03 A2995 RMK A01 T00550033  RH  088%=      5-min Rain = 0
KKN1 191145Z 32003KT 05/03 A2995 RMK A01 T00520029  RH  087%=      5-min Rain = 0
KKN1 191150Z 31002KT 05/03 A2995 RMK A01 T00490026  RH  087%=      5-min Rain = 0
KKN1 191155Z 29002KT 05/03 A2995 RMK A01 T00470027  RH  088%=      5-min Rain = 0
KKN1 191200Z 29001KT 05/03 A2995 RMK A01 T00470027  RH  088%=      5-min Rain = 0
KKN1 191205Z 29000KT 04/02 A2995 RMK A01 T00430024  RH  089%=      5-min Rain = 0
KKN1 191210Z 35001KT 04/02 A2995 RMK A01 T00400024  RH  090%=      5-min Rain = 0
KKN1 191215Z 35002KT 04/03 A2995 RMK A01 T00400025  RH  091%=      5-min Rain = 0
KKN1 191220Z 34001KT 04/03 A2995 RMK A01 T00420026  RH  091%=      5-min Rain = 0
KKN1 191225Z 35001KT 04/03 A2995 RMK A01 T00410026  RH  091%=      5-min Rain = 0
KKN1 191230Z 02001KT 04/03 A2995 RMK A01 T00410026  RH  092%=      5-min Rain = 0
KKN1 191235Z 03000KT 04/03 A2995 RMK A01 T00400025  RH  091%=      5-min Rain = 0
KKN1 191240Z 00000KT 04/03 A2995 RMK A01 T00410027  RH  092%=      5-min Rain = 0
KKN1 191245Z 08000KT 04/03 A2995 RMK A01 T00420027  RH  092%=      5-min Rain = 0
KKN1 191250Z 08001KT 04/03 A2995 RMK A01 T00420027  RH  092%=      5-min Rain = 0
KKN1 191255Z 08001KT 04/03 A2996 RMK A01 T00410026  RH  092%=      5-min Rain = 0
KKN1 191300Z 10001KT 04/03 A2996 RMK A01 T00400025  RH  092%=      5-min Rain = 0
KKN1 191305Z 11001KT 04/03 A2996 RMK A01 T00400026  RH  092%=      5-min Rain = 0
KKN1 191310Z 13001KT 04/03 A2996 RMK A01 T00420027  RH  092%=      5-min Rain = 0
KKN1 191315Z 17004KT 04/03 A2996 RMK A01 T00410026  RH  091%=      5-min Rain = 0
KKN1 191320Z 18006KT 04/03 A2996 RMK A01 T00410027  RH  092%=      5-min Rain = 0
KKN1 191325Z 17007KT 04/03 A2996 RMK A01 T00430028  RH  092%=      5-min Rain = 0
KKN1 191330Z 16006KT 04/03 A2996 RMK A01 T00440030  RH  092%=      5-min Rain = 0
KKN1 191335Z 16006KT 05/03 A2996 RMK A01 T00510034  RH  091%=      5-min Rain = 0
KKN1 191340Z 17005KT 05/04 A2997 RMK A01 T00540036  RH  090%=      5-min Rain = 0
KKN1 191345Z 19006KT 06/04 A2997 RMK A01 T00570038  RH  089%=      5-min Rain = 0
KKN1 191350Z 19007KT 06/04 A2997 RMK A01 T00590039  RH  088%=      5-min Rain = 0
KKN1 191355Z 19007KT 06/04 A2997 RMK A01 T00620040  RH  087%=      5-min Rain = 0
KKN1 191400Z 19007KT 07/04 A2997 RMK A01 T00670043  RH  087%=      5-min Rain = 0
KKN1 191405Z 19007KT 07/04 A2997 RMK A01 T00700044  RH  085%=      5-min Rain = 0
KKN1 191410Z 19006KT 07/05 A2997 RMK A01 T00740047  RH  085%=      5-min Rain = 0
KKN1 191415Z 19006KT 08/05 A2997 RMK A01 T00790049  RH  083%=      5-min Rain = 0
KKN1 191420Z 19006KT 09/05 A2997 RMK A01 T00860051  RH  081%=      5-min Rain = 0
KKN1 191425Z 18005KT 09/05 A2997 RMK A01 T00940054  RH  078%=      5-min Rain = 0
KKN1 191430Z 18004KT 10/06 A2997 RMK A01 T01020057  RH  075%=      5-min Rain = 0
KKN1 191435Z 19004KT 11/06 A2997 RMK A01 T01080057  RH  072%=      5-min Rain = 0
KKN1 191440Z 20004KT 11/06 A2997 RMK A01 T01130057  RH  070%=      5-min Rain = 0
KKN1 191445Z 21004KT 12/06 A2997 RMK A01 T01180057  RH  068%=      5-min Rain = 0
KKN1 191450Z 21004KT 12/06 A2997 RMK A01 T01210057  RH  066%=      5-min Rain = 0
KKN1 191455Z 21003KT 13/06 A2997 RMK A01 T01250057  RH  065%=      5-min Rain = 0
KKN1 191500Z 20003KT 13/06 A2997 RMK A01 T01290058  RH  063%=      5-min Rain = 0
KKN1 191505Z 24003KT 13/06 A2997 RMK A01 T01340060  RH  062%=      5-min Rain = 0
KKN1 191510Z 27004KT 13/06 A2998 RMK A01 T01250063  RH  068%=      5-min Rain = 0
KKN1 191515Z 26003KT 12/06 A2997 RMK A01 T01210063  RH  069%=      5-min Rain = 0
KKN1 191520Z 25003KT 12/06 A2997 RMK A01 T01220063  RH  069%=      5-min Rain = 0
KKN1 191525Z 24003KT 13/06 A2997 RMK A01 T01290064  RH  066%=      5-min Rain = 0
KKN1 191530Z 24002KT 14/07 A2997 RMK A01 T01350066  RH  064%=      5-min Rain = 0
KKN1 191535Z 21003KT 14/07 A2997 RMK A01 T01420066  RH  062%=      5-min Rain = 0
KKN1 191540Z 21003KT 15/07 A2997 RMK A01 T01510066  RH  058%=      5-min Rain = 0
KKN1 191545Z 21003KT 16/07 A2997 RMK A01 T01560065  RH  056%=      5-min Rain = 0
KKN1 191550Z 21003KT 16/07 A2997 RMK A01 T01600067  RH  055%=      5-min Rain = 0
KKN1 191555Z 21003KT 16/07 A2997 RMK A01 T01640067  RH  054%=      5-min Rain = 0
KKN1 191600Z 20003KT 17/07 A2997 RMK A01 T01700067  RH  052%=      5-min Rain = 0
KKN1 191605Z 20003KT 18/06 A2997 RMK A01 T01750064  RH  049%=      5-min Rain = 0
KKN1 191610Z 20002KT 18/07 A2997 RMK A01 T01790066  RH  049%=      5-min Rain = 0
KKN1 191615Z 20006KT 19/06 A2997 RMK A01 T01850055  RH  043%=      5-min Rain = 0
KKN1 191620Z 19007KT 19/05 A2997 RMK A01 T01890047  RH  040%=      5-min Rain = 0
KKN1 191625Z 19005KT 19/05 A2997 RMK A01 T01900048  RH  040%=      5-min Rain = 0
KKN1 191630Z 19005KT 19/05 A2997 RMK A01 T01920049  RH  040%=      5-min Rain = 0
KKN1 191635Z 20004KT 19/05 A2996 RMK A01 T01940050  RH  040%=      5-min Rain = 0
KKN1 191640Z 20005KT 20/05 A2996 RMK A01 T01980053  RH  039%=      5-min Rain = 0
KKN1 191645Z 22005KT 20/05 A2996 RMK A01 T01980051  RH  039%=      5-min Rain = 0
KKN1 191650Z 22004KT 20/05 A2996 RMK A01 T02020053  RH  039%=      5-min Rain = 0
KKN1 191655Z 21008KT 21/06 A2996 RMK A01 T02070057  RH  038%=      5-min Rain = 0
KKN1 191700Z 21007KT 21/06 A2996 RMK A01 T02100059  RH  038%=      5-min Rain = 0
KKN1 191705Z 21008KT 21/06 A2995 RMK A01 T02100058  RH  038%=      5-min Rain = 0
KKN1 191710Z 21007KT 21/06 A2995 RMK A01 T02090059  RH  038%=      5-min Rain = 0
KKN1 191715Z 21005KT 21/06 A2995 RMK A01 T02110060  RH  038%=      5-min Rain = 0
KKN1 191720Z 20007KT 21/06 A2995 RMK A01 T02130062  RH  038%=      5-min Rain = 0
KKN1 191725Z 19007KT 21/06 A2994 RMK A01 T02140063  RH  038%=      5-min Rain = 0
KKN1 191730Z 21006KT 22/07 A2994 RMK A01 T02190065  RH  038%=      5-min Rain = 0
KKN1 191735Z 21007KT 23/07 A2994 RMK A01 T02250066  RH  037%=      5-min Rain = 0
KKN1 191740Z 21005KT 23/07 A2994 RMK A01 T02280066  RH  036%=      5-min Rain = 0
KKN1 191745Z 22006KT 23/07 A2994 RMK A01 T02310067  RH  036%=      5-min Rain = 0
KKN1 191750Z 20007KT 24/07 A2994 RMK A01 T02350068  RH  035%=      5-min Rain = 0
KKN1 191755Z 21008KT 24/07 A2993 RMK A01 T02360069  RH  035%=      5-min Rain = 0
KKN1 191800Z 21009KT 24/07 A2993 RMK A01 T02360067  RH  035%=      5-min Rain = 0
KKN1 191805Z 20008KT 24/07 A2993 RMK A01 T02350068  RH  035%=      5-min Rain = 0
KKN1 191810Z 21009KT 24/07 A2992 RMK A01 T02390069  RH  034%=      5-min Rain = 0
KKN1 191815Z 20010KT 24/07 A2992 RMK A01 T02380068  RH  034%=      5-min Rain = 0
KKN1 191820Z 21009KT 24/07 A2992 RMK A01 T02400069  RH  034%=      5-min Rain = 0
KKN1 191825Z 19009KT 24/07 A2991 RMK A01 T02420069  RH  034%=      5-min Rain = 0
KKN1 191830Z 18009KT 24/07 A2991 RMK A01 T02430069  RH  034%=      5-min Rain = 0
KKN1 191835Z 18012KT 24/07 A2991 RMK A01 T02430068  RH  033%=      5-min Rain = 0
KKN1 191840Z 18009KT 25/07 A299 RMK A01 T02470069  RH  033%=      5-min Rain = 0
KKN1 191845Z 18011KT 25/07 A299 RMK A01 T02460067  RH  033%=      5-min Rain = 0
KKN1 191850Z 18009KT 25/07 A299 RMK A01 T02450069  RH  033%=      5-min Rain = 0
KKN1 191855Z 18010KT 25/07 A299 RMK A01 T02480070  RH  033%=      5-min Rain = 0
KKN1 191900Z 18011G16KT 25/07 A2989 RMK A01 T02480067  RH  032%=      5-min Rain = 0
KKN1 191905Z 19012KT 25/07 A2989 RMK A01 T02500067  RH  032%=      5-min Rain = 0
KKN1 191910Z 19011G16KT 25/07 A2989 RMK A01 T02540068  RH  031%=      5-min Rain = 0
KKN1 191915Z 19011KT 25/07 A2989 RMK A01 T02520068  RH  032%=      5-min Rain = 0
KKN1 191920Z 18012KT 25/07 A2988 RMK A01 T02530066  RH  031%=      5-min Rain = 0
KKN1 191925Z 19010KT 25/07 A2988 RMK A01 T02540067  RH  031%=      5-min Rain = 0
KKN1 191930Z 19011KT 26/07 A2988 RMK A01 T02560065  RH  030%=      5-min Rain = 0
KKN1 191935Z 17012G17KT 26/07 A2987 RMK A01 T02580066  RH  030%=      5-min Rain = 0
KKN1 191940Z 16012G18KT 26/07 A2987 RMK A01 T02580066  RH  030%=      5-min Rain = 0
KKN1 191945Z 17014G19KT 26/06 A2987 RMK A01 T02570064  RH  030%=      5-min Rain = 0
KKN1 191950Z 18014G19KT 26/07 A2987 RMK A01 T02580065  RH  030%=      5-min Rain = 0
KKN1 191955Z 18015KT 26/06 A2987 RMK A01 T02550064  RH  030%=      5-min Rain = 0
KKN1 192000Z 18014G19KT 25/07 A2987 RMK A01 T02540066  RH  031%=      5-min Rain = 0
KKN1 192005Z 18014KT 26/07 A2986 RMK A01 T02560068  RH  031%=      5-min Rain = 0
KKN1 192010Z 18013KT 26/07 A2986 RMK A01 T02550068  RH  031%=      5-min Rain = 0
KKN1 192015Z 17014KT 26/07 A2986 RMK A01 T02590067  RH  030%=      5-min Rain = 0
KKN1 192020Z 17015KT 26/07 A2985 RMK A01 T02600065  RH  030%=      5-min Rain = 0
KKN1 192025Z 18014G19KT 26/07 A2985 RMK A01 T02610065  RH  029%=      5-min Rain = 0
KKN1 192030Z 17015KT 26/07 A2985 RMK A01 T02600065  RH  030%=      5-min Rain = 0
KKN1 192035Z 17016KT 26/07 A2985 RMK A01 T02620067  RH  030%=      5-min Rain = 0
KKN1 192040Z 16014KT 26/07 A2984 RMK A01 T02610067  RH  030%=      5-min Rain = 0
KKN1 192045Z 17014KT 26/07 A2984 RMK A01 T02630068  RH  029%=      5-min Rain = 0
KKN1 192050Z 17014G19KT 26/07 A2984 RMK A01 T02640066  RH  029%=      5-min Rain = 0
KKN1 192055Z 17015G20KT 27/06 A2984 RMK A01 T02660062  RH  028%=      5-min Rain = 0
KKN1 192100Z 16014KT 27/06 A2984 RMK A01 T02680061  RH  027%=      5-min Rain = 0
KKN1 192105Z 18013KT 27/06 A2983 RMK A01 T02690062  RH  027%=      5-min Rain = 0
KKN1 192110Z 18014KT 27/06 A2983 RMK A01 T02700059  RH  027%=      5-min Rain = 0
KKN1 192115Z 17015G21KT 27/05 A2982 RMK A01 T02720046  RH  024%=      5-min Rain = 0
KKN1 192120Z 18016G21KT 27/04 A2982 RMK A01 T02700041  RH  023%=      5-min Rain = 0
KKN1 192125Z 17014G19KT 27/04 A2982 RMK A01 T02710038  RH  023%=      5-min Rain = 0
KKN1 192130Z 18018G23KT 27/04 A2982 RMK A01 T02710035  RH  022%=      5-min Rain = 0
KKN1 192135Z 18015KT 27/03 A2982 RMK A01 T02710034  RH  022%=      5-min Rain = 0
KKN1 192140Z 19015G21KT 27/04 A2982 RMK A01 T02710035  RH  022%=      5-min Rain = 0
KKN1 192145Z 18015G20KT 27/04 A2982 RMK A01 T02710036  RH  023%=      5-min Rain = 0
KKN1 192150Z 16017KT 27/03 A2982 RMK A01 T02690032  RH  022%=      5-min Rain = 0
KKN1 192155Z 16015KT 27/03 A2981 RMK A01 T02670030  RH  022%=      5-min Rain = 0
KKN1 192200Z 17016KT 27/03 A2981 RMK A01 T02650030  RH  022%=      5-min Rain = 0
KKN1 192205Z 17014KT 27/03 A2981 RMK A01 T02660030  RH  022%=      5-min Rain = 0
KKN1 192210Z 17012KT 27/03 A2981 RMK A01 T02660033  RH  023%=      5-min Rain = 0
KKN1 192215Z 16016KT 27/03 A2981 RMK A01 T02650032  RH  023%=      5-min Rain = 0
KKN1 192220Z 16015KT 26/03 A2981 RMK A01 T02630034  RH  023%=      5-min Rain = 0
KKN1 192225Z 17014KT 26/04 A2981 RMK A01 T02620038  RH  024%=      5-min Rain = 0
KKN1 192230Z 17014G19KT 26/04 A2981 RMK A01 T02600038  RH  024%=      5-min Rain = 0
KKN1 192235Z 16015KT 26/04 A2981 RMK A01 T02570037  RH  024%=      5-min Rain = 0
KKN1 192240Z 16014KT 26/04 A2981 RMK A01 T02550036  RH  025%=      5-min Rain = 0
KKN1 192245Z 16013KT 25/04 A2981 RMK A01 T02540036  RH  025%=      5-min Rain = 0
KKN1 192250Z 16012KT 25/04 A2981 RMK A01 T02510036  RH  025%=      5-min Rain = 0
KKN1 192255Z 16012KT 25/04 A2981 RMK A01 T02460035  RH  026%=      5-min Rain = 0
KKN1 192300Z 16012G17KT 24/03 A2981 RMK A01 T02440034  RH  026%=      5-min Rain = 0
KKN1 192305Z 16011KT 24/03 A2981 RMK A01 T02420034  RH  026%=      5-min Rain = 0
KKN1 192310Z 17011KT 24/04 A2981 RMK A01 T02390035  RH  027%=      5-min Rain = 0
KKN1 192315Z 17011KT 23/04 A2981 RMK A01 T02340036  RH  028%=      5-min Rain = 0
KKN1 192320Z 17011KT 23/04 A2981 RMK A01 T02310037  RH  029%=      5-min Rain = 0
KKN1 192325Z 17010KT 23/04 A2981 RMK A01 T02260038  RH  030%=      5-min Rain = 0
KKN1 192330Z 17010KT 22/04 A2981 RMK A01 T02220040  RH  031%=      5-min Rain = 0
KKN1 192335Z 17010KT 22/04 A2982 RMK A01 T02170041  RH  032%=      5-min Rain = 0
KKN1 192340Z 17010KT 22/04 A2981 RMK A01 T02150042  RH  033%=      5-min Rain = 0
KKN1 192345Z 16010KT 21/04 A2981 RMK A01 T02120042  RH  034%=      5-min Rain = 0
KKN1 192350Z 16010KT 21/04 A2981 RMK A01 T02110044  RH  034%=      5-min Rain = 0
KKN1 192355Z 15009KT 21/05 A2981 RMK A01 T02060045  RH  035%=      5-min Rain = 0
KKN1 200000Z 15008KT 20/05 A2981 RMK A01 T02010046  RH  037%=      5-min Rain = 0
KKN1 200005Z 15009KT 19/05 A2981 RMK A01 T01940047  RH  039%=      5-min Rain = 0
KKN1 200010Z 15009KT 19/05 A2981 RMK A01 T01890047  RH  040%=      5-min Rain = 0
KKN1 200015Z 15009KT 19/05 A2981 RMK A01 T01880047  RH  040%=      5-min Rain = 0
KKN1 200020Z 15009KT 19/05 A2981 RMK A01 T01850048  RH  041%=      5-min Rain = 0
KKN1 200025Z 15009KT 18/05 A2981 RMK A01 T01810049  RH  043%=      5-min Rain = 0
KKN1 200030Z 15010KT 18/05 A2981 RMK A01 T01800050  RH  043%=      5-min Rain = 0
KKN1 200035Z 15010KT 18/05 A2981 RMK A01 T01830051  RH  043%=      5-min Rain = 0
KKN1 200040Z 15010KT 18/05 A2981 RMK A01 T01840053  RH  043%=      5-min Rain = 0
KKN1 200045Z 15010KT 18/05 A2982 RMK A01 T01830054  RH  044%=      5-min Rain = 0
KKN1 200050Z 15010KT 18/05 A2982 RMK A01 T01810054  RH  044%=      5-min Rain = 0
KKN1 200055Z 15010KT 18/06 A2982 RMK A01 T01800055  RH  045%=      5-min Rain = 0
KKN1 200100Z 15010KT 18/06 A2981 RMK A01 T01790056  RH  045%=      5-min Rain = 0
KKN1 200105Z 15010KT 18/06 A2981 RMK A01 T01760055  RH  046%=      5-min Rain = 0
KKN1 200110Z 15010KT 18/06 A2981 RMK A01 T01790055  RH  045%=      5-min Rain = 0
KKN1 200115Z 14009KT 18/06 A2981 RMK A01 T01780056  RH  046%=      5-min Rain = 0
KKN1 200120Z 14010KT 18/06 A2981 RMK A01 T01750056  RH  047%=      5-min Rain = 0
KKN1 200125Z 15010KT 17/06 A2982 RMK A01 T01740056  RH  047%=      5-min Rain = 0
KKN1 200130Z 15011KT 17/06 A2982 RMK A01 T01740057  RH  047%=      5-min Rain = 0
KKN1 200135Z 14011KT 17/06 A2981 RMK A01 T01720057  RH  048%=      5-min Rain = 0
KKN1 200140Z 14011KT 17/06 A2981 RMK A01 T01710057  RH  048%=      5-min Rain = 0
KKN1 200145Z 14011KT 17/06 A2981 RMK A01 T01690057  RH  049%=      5-min Rain = 0
KKN1 200150Z 14012KT 17/06 A2981 RMK A01 T01670057  RH  049%=      5-min Rain = 0
KKN1 200155Z 14012KT 17/06 A2981 RMK A01 T01670057  RH  049%=      5-min Rain = 0
KKN1 200200Z 14012KT 17/06 A2981 RMK A01 T01670058  RH  050%=      5-min Rain = 0
KKN1 200205Z 14011KT 17/06 A2981 RMK A01 T01650058  RH  050%=      5-min Rain = 0
KKN1 200210Z 14012KT 17/06 A2981 RMK A01 T01650058  RH  051%=      5-min Rain = 0
KKN1 200215Z 14012KT 16/06 A2981 RMK A01 T01640059  RH  051%=      5-min Rain = 0
KKN1 200220Z 14012KT 16/06 A2981 RMK A01 T01640060  RH  051%=      5-min Rain = 0
KKN1 200225Z 14011KT 16/06 A2981 RMK A01 T01620061  RH  052%=      5-min Rain = 0
KKN1 200230Z 14011KT 16/06 A2981 RMK A01 T01620062  RH  053%=      5-min Rain = 0
KKN1 200235Z 14011KT 16/06 A2982 RMK A01 T01610063  RH  054%=      5-min Rain = 0
KKN1 200240Z 14010KT 16/06 A2982 RMK A01 T01600063  RH  054%=      5-min Rain = 0
KKN1 200245Z 14011KT 16/06 A2982 RMK A01 T01600064  RH  054%=      5-min Rain = 0
KKN1 200250Z 15011KT 16/06 A2982 RMK A01 T01630064  RH  053%=      5-min Rain = 0
KKN1 200255Z 15011KT 16/06 A2982 RMK A01 T01640064  RH  053%=      5-min Rain = 0
KKN1 200300Z 15011KT 16/06 A2982 RMK A01 T01640064  RH  053%=      5-min Rain = 0
KKN1 200305Z 15011KT 16/07 A2982 RMK A01 T01640065  RH  053%=      5-min Rain = 0
KKN1 200310Z 15011KT 16/07 A2982 RMK A01 T01640065  RH  053%=      5-min Rain = 0
KKN1 200315Z 15011KT 16/07 A2982 RMK A01 T01630065  RH  054%=      5-min Rain = 0
KKN1 200320Z 15010KT 16/07 A2982 RMK A01 T01610065  RH  054%=      5-min Rain = 0
KKN1 200325Z 15010KT 16/07 A2982 RMK A01 T01590065  RH  055%=      5-min Rain = 0
KKN1 200330Z 15010KT 16/07 A2982 RMK A01 T01580065  RH  055%=      5-min Rain = 0
KKN1 200335Z 15010KT 16/07 A2982 RMK A01 T01560065  RH  056%=      5-min Rain = 0
KKN1 200340Z 16010KT 16/07 A2982 RMK A01 T01550066  RH  057%=      5-min Rain = 0
KKN1 200345Z 16010KT 15/07 A2982 RMK A01 T01540066  RH  057%=      5-min Rain = 0
KKN1 200350Z 16010KT 16/07 A2982 RMK A01 T01560067  RH  057%=      5-min Rain = 0
KKN1 200355Z 16011KT 16/07 A2982 RMK A01 T01610068  RH  055%=      5-min Rain = 0
KKN1 200400Z 16012KT 17/07 A2982 RMK A01 T01650069  RH  054%=      5-min Rain = 0
KKN1 200405Z 16012KT 17/07 A2982 RMK A01 T01660069  RH  054%=      5-min Rain = 0
KKN1 200410Z 16013KT 17/07 A2982 RMK A01 T01660070  RH  054%=      5-min Rain = 0
KKN1 200415Z 16013KT 17/07 A2982 RMK A01 T01660070  RH  055%=      5-min Rain = 0
KKN1 200420Z 16012KT 17/07 A2982 RMK A01 T01650071  RH  055%=      5-min Rain = 0
KKN1 200425Z 16013KT 17/07 A2982 RMK A01 T01650071  RH  055%=      5-min Rain = 0
KKN1 200430Z 16012KT 16/07 A2982 RMK A01 T01640072  RH  056%=      5-min Rain = 0
KKN1 200435Z 16012KT 16/07 A2983 RMK A01 T01630072  RH  056%=      5-min Rain = 0
KKN1 200440Z 16011KT 16/07 A2983 RMK A01 T01630073  RH  057%=      5-min Rain = 0
KKN1 200445Z 16011KT 16/07 A2983 RMK A01 T01610074  RH  057%=      5-min Rain = 0
KKN1 200450Z 16010KT 16/07 A2983 RMK A01 T01600074  RH  058%=      5-min Rain = 0
KKN1 200455Z 16010KT 16/07 A2983 RMK A01 T01590074  RH  059%=      5-min Rain = 0
KKN1 200500Z 16010KT 16/08 A2983 RMK A01 T01570075  RH  059%=      5-min Rain = 0
KKN1 200505Z 16010KT 16/08 A2983 RMK A01 T01560075  RH  060%=      5-min Rain = 0
KKN1 200510Z 16010KT 16/08 A2983 RMK A01 T01550076  RH  061%=      5-min Rain = 0
KKN1 200515Z 16009KT 15/08 A2983 RMK A01 T01540076  RH  061%=      5-min Rain = 0
KKN1 200520Z 16010KT 15/08 A2983 RMK A01 T01530077  RH  062%=      5-min Rain = 0
KKN1 200525Z 16010KT 15/08 A2983 RMK A01 T01510077  RH  063%=      5-min Rain = 0
KKN1 200530Z 16010KT 15/08 A2983 RMK A01 T01490077  RH  064%=      5-min Rain = 0
KKN1 200535Z 16010KT 15/08 A2983 RMK A01 T01480078  RH  064%=      5-min Rain = 0
KKN1 200540Z 16011KT 15/08 A2982 RMK A01 T01480078  RH  065%=      5-min Rain = 0
KKN1 200545Z 16010KT 15/08 A2982 RMK A01 T01480079  RH  065%=      5-min Rain = 0
KKN1 200550Z 16009KT 15/08 A2982 RMK A01 T01470079  RH  066%=      5-min Rain = 0
KKN1 200555Z 17009KT 15/08 A2982 RMK A01 T01460080  RH  066%=      5-min Rain = 0

Page generated in 0.0088 seconds.